Time;durP1;ratioP1;P1;durP2;ratioP2;P2;SDS_P1;SDS_P2;PMS_P1;PMS_P2;Temp;Humidity;BMP_temperature;BMP_pressure;BME280_temperature;BME280_humidity;BME280_pressure;Samples;Min_cycle;Max_cycle;Signal;HPM_P1;HPM_P2
2021/08/09 00:00:14;;;;;;;6.22;2.67;;;;;;;22.47;44.45;100472.66;5074001;28;20020;-89
2021/08/09 00:02:39;;;;;;;7.80;2.40;;;;;;;22.55;44.02;100474.25;5074739;28;20025;-79
2021/08/09 00:05:06;;;;;;;11.40;2.40;;;;;;;22.51;44.08;100472.66;5074861;28;20422;-79
2021/08/09 00:07:31;;;;;;;6.38;2.30;;;;;;;22.41;44.49;100475.06;5074797;28;20025;-79
2021/08/09 00:09:57;;;;;;;4.55;2.10;;;;;;;22.49;44.20;100475.03;5074885;28;20027;-89
2021/08/09 00:12:23;;;;;;;6.68;2.38;;;;;;;22.52;43.84;100472.25;5072420;28;20439;-89
2021/08/09 00:14:48;;;;;;;7.22;2.47;;;;;;;22.38;44.24;100483.41;5073392;28;20067;-78
2021/08/09 00:17:14;;;;;;;4.45;2.17;;;;;;;22.50;43.86;100477.41;5073636;28;20063;-79
2021/08/09 00:19:39;;;;;;;5.35;2.70;;;;;;;22.46;44.18;100485.00;5074914;28;20029;-78
2021/08/09 00:22:05;;;;;;;10.43;3.55;;;;;;;22.47;44.01;100481.00;5074415;28;20026;-79
2021/08/09 00:24:31;;;;;;;7.30;2.88;;;;;;;22.50;43.74;100485.78;5073332;28;20025;-79
2021/08/09 00:26:56;;;;;;;5.00;2.50;;;;;;;22.54;43.69;100485.78;5073155;28;20021;-79
2021/08/09 00:29:22;;;;;;;6.13;2.75;;;;;;;22.43;43.77;100483.78;5072987;28;20114;-79
2021/08/09 00:31:48;;;;;;;6.43;2.50;;;;;;;22.51;43.86;100486.56;5074433;28;20031;-79
2021/08/09 00:34:13;;;;;;;6.93;2.60;;;;;;;22.52;43.44;100483.41;5072923;28;20047;-79
2021/08/09 00:36:39;;;;;;;8.63;2.40;;;;;;;22.44;43.99;100484.59;5072601;28;20429;-90
2021/08/09 00:39:04;;;;;;;4.15;2.53;;;;;;;22.36;44.08;100477.44;5072837;28;20066;-88
2021/08/09 00:41:30;;;;;;;8.05;3.03;;;;;;;22.22;44.50;100480.22;5074160;28;20158;-79
2021/08/09 00:43:56;;;;;;;9.25;3.08;;;;;;;22.23;44.50;100479.06;5074217;28;20493;-79
2021/08/09 00:46:23;;;;;;;4.22;2.80;;;;;;;22.27;44.36;100488.19;5073847;28;20036;-79
2021/08/09 00:48:48;;;;;;;6.88;2.58;;;;;;;22.34;44.14;100483.41;5072996;28;20028;-80
2021/08/09 00:51:14;;;;;;;9.25;2.75;;;;;;;22.26;44.24;100481.81;5072842;28;20063;-79
2021/08/09 00:53:40;;;;;;;8.10;2.83;;;;;;;22.30;44.02;100482.63;5073877;28;20043;-79
2021/08/09 00:56:06;;;;;;;7.82;3.08;;;;;;;22.10;44.51;100485.00;5073685;28;20047;-79
2021/08/09 00:58:33;;;;;;;9.73;2.47;;;;;;;22.16;44.31;100485.41;5072802;28;20036;-79
2021/08/09 01:00:59;;;;;;;9.25;3.17;;;;;;;22.22;44.08;100483.00;5072418;28;20107;-78
2021/08/09 01:03:24;;;;;;;7.88;3.22;;;;;;;22.27;43.93;100485.41;5072433;28;20468;-79
2021/08/09 01:05:51;;;;;;;8.07;3.17;;;;;;;22.23;43.93;100482.63;5073627;28;20030;-79
2021/08/09 01:08:43;;;;;;;8.13;3.78;;;;;;;22.32;44.03;100487.78;5072514;28;20437;-79
2021/08/09 01:11:26;;;;;;;5.35;2.90;;;;;;;22.27;44.21;100488.97;5072480;28;20103;-79
2021/08/09 01:13:58;;;;;;;6.53;2.40;;;;;;;22.30;43.90;100484.63;5072414;28;20089;-79
2021/08/09 01:16:35;;;;;;;7.13;2.70;;;;;;;22.15;44.49;100484.63;5072154;28;20036;-79
2021/08/09 01:19:16;;;;;;;7.78;2.38;;;;;;;22.17;44.42;100489.00;5072027;28;20479;-78
2021/08/09 01:21:43;;;;;;;5.93;2.38;;;;;;;22.30;43.71;100484.63;5073680;28;20021;-79
2021/08/09 01:24:32;;;;;;;11.63;2.95;;;;;;;22.33;44.04;100481.81;5072276;28;20029;-79
2021/08/09 01:27:10;;;;;;;9.82;4.13;;;;;;;22.31;43.91;100486.22;5073387;28;20048;-90
2021/08/09 01:29:42;;;;;;;5.75;2.58;;;;;;;22.17;43.96;100481.44;5073755;28;20465;-79
2021/08/09 01:32:09;;;;;;;8.80;2.97;;;;;;;22.07;44.40;100493.34;5072230;28;20028;-81
2021/08/09 01:34:35;;;;;;;7.50;3.15;;;;;;;22.11;44.34;100481.03;5071369;28;20067;-79
2021/08/09 01:37:02;;;;;;;8.65;2.78;;;;;;;22.06;44.19;100477.81;5073007;28;20500;-79
2021/08/09 01:39:29;;;;;;;6.25;2.72;;;;;;;21.96;44.29;100478.63;5073147;28;20032;-79
2021/08/09 01:41:56;;;;;;;8.20;2.60;;;;;;;22.00;44.43;100483.00;5073565;28;20021;-79
2021/08/09 01:44:24;;;;;;;14.70;3.05;;;;;;;21.98;44.59;100474.25;5073020;28;20425;-80
2021/08/09 01:46:50;;;;;;;5.15;2.53;;;;;;;22.03;44.44;100475.84;5071762;28;20039;-80
2021/08/09 01:49:16;;;;;;;7.15;2.60;;;;;;;22.01;44.30;100472.66;5070623;28;20388;-80
2021/08/09 01:51:43;;;;;;;10.20;2.85;;;;;;;21.95;44.40;100477.81;5072982;28;20386;-79
2021/08/09 01:54:10;;;;;;;11.57;3.00;;;;;;;21.98;44.38;100476.22;5071436;28;20027;-89
2021/08/09 01:56:38;;;;;;;6.90;2.80;;;;;;;22.04;44.18;100467.09;5072399;28;20048;-80
2021/08/09 01:59:05;;;;;;;5.07;2.65;;;;;;;22.05;44.13;100477.03;5073221;28;20025;-79
2021/08/09 02:01:30;;;;;;;8.13;2.70;;;;;;;22.11;44.14;100480.25;5072207;28;20016;-80
2021/08/09 02:03:56;;;;;;;7.22;2.42;;;;;;;22.07;44.15;100485.00;5073300;28;20412;-89
2021/08/09 02:06:22;;;;;;;8.07;2.35;;;;;;;22.03;43.92;100484.97;5071891;28;20035;-80
2021/08/09 02:08:48;;;;;;;8.18;2.70;;;;;;;22.07;43.87;100479.44;5071882;28;20372;-79
2021/08/09 02:11:26;;;;;;;8.15;3.08;;;;;;;22.02;44.19;100483.41;5071993;28;20443;-79
2021/08/09 02:14:03;;;;;;;10.15;2.65;;;;;;;21.97;44.44;100480.22;5072723;28;20054;-79
2021/08/09 02:16:40;;;;;;;15.20;2.63;;;;;;;22.07;44.03;100480.22;5073338;28;20032;-79
2021/08/09 02:19:34;;;;;;;7.05;2.80;;;;;;;21.93;44.40;100477.44;5072060;28;20108;-88
2021/08/09 02:22:12;;;;;;;8.27;2.80;;;;;;;22.02;44.32;100474.25;5072874;28;20056;-82
2021/08/09 02:24:58;;;;;;;5.18;2.25;;;;;;;22.12;44.00;100473.47;5072899;28;20024;-78
2021/08/09 02:27:29;;;;;;;12.18;2.92;;;;;;;22.06;44.39;100470.25;5071664;28;20383;-79
2021/08/09 02:29:56;;;;;;;9.40;3.00;;;;;;;22.10;44.11;100470.31;5071342;28;20020;-79
2021/08/09 02:32:27;;;;;;;15.20;3.22;;;;;;;22.08;44.01;100479.06;5071753;28;20115;-79
2021/08/09 02:34:55;;;;;;;7.75;2.72;;;;;;;22.03;44.21;100473.84;5072810;28;20087;-79
2021/08/09 02:37:21;;;;;;;4.72;2.75;;;;;;;22.09;43.98;100477.06;5071337;28;20032;-80
2021/08/09 02:39:47;;;;;;;12.68;3.22;;;;;;;21.89;44.59;100471.84;5072831;28;20073;-85
2021/08/09 02:42:13;;;;;;;9.10;2.95;;;;;;;21.99;44.41;100477.81;5072911;28;20467;-78
2021/08/09 02:44:40;;;;;;;8.45;2.33;;;;;;;21.92;44.67;100472.28;5072730;28;20036;-79
2021/08/09 02:47:09;;;;;;;5.60;2.38;;;;;;;21.94;44.45;100472.66;5071184;28;20032;-78
2021/08/09 02:49:36;;;;;;;5.20;2.40;;;;;;;21.92;44.48;100470.28;5072734;28;20028;-88
2021/08/09 02:52:03;;;;;;;5.68;2.15;;;;;;;21.83;44.55;100467.06;5072815;28;20103;-88
2021/08/09 02:54:30;;;;;;;6.10;2.40;;;;;;;21.80;44.79;100471.47;5072760;28;20024;-88
2021/08/09 02:56:56;;;;;;;5.15;2.35;;;;;;;21.84;44.71;100475.06;5071466;28;20487;-89
2021/08/09 02:59:22;;;;;;;7.28;2.47;;;;;;;21.87;44.47;100468.69;5072807;28;20397;-88
2021/08/09 03:01:48;;;;;;;8.60;2.28;;;;;;;21.87;44.66;100470.69;5076151;28;20475;-90
2021/08/09 03:04:15;;;;;;;7.63;2.63;;;;;;;21.82;44.73;100466.28;5076706;28;20039;-79
2021/08/09 03:06:42;;;;;;;5.78;2.47;;;;;;;21.84;44.61;100471.47;5075361;28;20025;-81
2021/08/09 03:09:08;;;;;;;4.25;1.88;;;;;;;21.84;44.55;100468.69;5075385;28;20032;-79
2021/08/09 03:11:34;;;;;;;4.60;1.95;;;;;;;21.83;44.56;100472.63;5076555;28;20020;-87
2021/08/09 03:14:00;;;;;;;5.95;2.50;;;;;;;21.77;44.53;100471.47;5075162;28;20111;-88
2021/08/09 03:16:26;;;;;;;10.82;2.40;;;;;;;21.73;44.73;100479.78;5076541;28;20588;-79
2021/08/09 03:18:51;;;;;;;8.77;2.80;;;;;;;21.72;44.68;100469.84;5076042;28;20071;-89
2021/08/09 03:21:17;;;;;;;7.28;2.85;;;;;;;21.76;44.56;100469.84;5076217;28;20059;-89
2021/08/09 03:23:43;;;;;;;8.20;2.67;;;;;;;21.79;44.51;100471.84;5075142;28;20376;-88
2021/08/09 03:26:09;;;;;;;7.65;2.72;;;;;;;21.76;44.63;100473.44;5076412;28;20040;-89
2021/08/09 03:28:35;;;;;;;12.52;2.83;;;;;;;21.75;44.43;100473.81;5075386;28;20029;-78
2021/08/09 03:31:03;;;;;;;6.45;2.30;;;;;;;21.71;44.39;100473.03;5075041;28;20033;-80
2021/08/09 03:33:29;;;;;;;4.88;2.00;;;;;;;21.69;44.36;100472.63;5075973;28;20419;-89
2021/08/09 03:35:55;;;;;;;8.07;2.53;;;;;;;21.71;44.41;100470.25;5075036;28;20471;-88
2021/08/09 03:38:20;;;;;;;6.53;2.92;;;;;;;21.68;44.61;100482.16;5076396;28;20021;-90
2021/08/09 03:40:46;;;;;;;11.05;2.90;;;;;;;21.70;44.65;100475.03;5076430;28;20463;-79
2021/08/09 03:43:11;;;;;;;10.07;2.30;;;;;;;21.69;44.48;100476.22;5074787;28;20020;-88
2021/08/09 03:45:37;;;;;;;7.93;2.70;;;;;;;21.69;44.66;100467.06;5074414;28;20047;-78
2021/08/09 03:48:06;;;;;;;6.43;2.15;;;;;;;21.64;44.75;100479.38;5074712;28;20021;-79
2021/08/09 03:50:32;;;;;;;9.50;2.95;;;;;;;21.68;44.49;100471.03;5075718;28;20025;-79
2021/08/09 03:52:57;;;;;;;11.00;2.88;;;;;;;21.55;44.86;100471.44;5075326;28;20086;-78
2021/08/09 03:55:23;;;;;;;7.00;2.53;;;;;;;21.65;44.64;100477.41;5073885;28;20052;-79
2021/08/09 03:57:49;;;;;;;8.48;2.10;;;;;;;21.65;44.75;100474.63;5075003;28;20028;-79
2021/08/09 04:00:15;;;;;;;7.00;2.08;;;;;;;21.68;44.54;100471.03;5074038;28;20112;-78
2021/08/09 04:02:41;;;;;;;7.60;2.80;;;;;;;21.55;45.14;100462.28;5074667;28;20497;-80
2021/08/09 04:05:11;;;;;;;6.90;2.60;;;;;;;21.51;45.19;100469.81;5062929;28;20116;-78
2021/08/09 04:07:37;;;;;;;;;;;;;;;21.46;45.81;100471.00;5055202;28;20079;-79
2021/08/09 04:10:05;;;;;;;6.63;2.03;;;;;;;21.64;44.97;100467.47;5053759;28;19912;-79
2021/08/09 04:12:30;;;;;;;10.75;3.10;;;;;;;21.68;45.09;100473.81;5053109;28;20036;-79
2021/08/09 04:14:56;;;;;;;4.43;2.22;;;;;;;21.49;45.84;100477.75;5070446;28;20395;-78
2021/08/09 04:17:22;;;;;;;6.63;3.33;;;;;;;21.65;45.44;100472.63;5053316;28;20025;-79
2021/08/09 04:19:47;;;;;;;16.08;3.55;;;;;;;21.56;45.84;100464.69;5053302;28;20036;-80
2021/08/09 04:22:13;;;;;;;5.80;2.13;;;;;;;21.52;46.33;100466.63;5054726;28;20083;-79
2021/08/09 04:24:39;;;;;;;7.35;1.92;;;;;;;21.68;46.01;100473.81;5053683;28;20399;-80
2021/08/09 04:27:05;;;;;;;9.05;2.65;;;;;;;21.88;45.57;100473.06;5054437;28;20029;-79
2021/08/09 04:29:30;;;;;;;6.00;2.70;;;;;;;21.89;45.66;100471.84;5053079;28;20107;-78
2021/08/09 04:31:56;;;;;;;5.57;2.35;;;;;;;22.04;45.26;100483.00;5053391;28;20550;-80
2021/08/09 04:34:22;;;;;;;11.75;2.70;;;;;;;22.07;45.42;100476.66;5053038;28;20045;-80
2021/08/09 04:36:47;;;;;;;8.23;2.92;;;;;;;22.16;45.22;100477.06;5054143;28;20029;-79
2021/08/09 04:39:13;;;;;;;5.53;2.38;;;;;;;22.21;45.11;100473.06;5259810;22;20049;-76
2021/08/09 04:41:38;;;;;;;8.52;2.83;;;;;;;22.23;45.12;100477.06;5073875;28;20033;-76
2021/08/09 04:44:05;;;;;;;11.05;2.40;;;;;;;22.24;45.22;100475.09;5073830;28;20107;-76
2021/08/09 04:46:31;;;;;;;10.35;2.60;;;;;;;22.20;45.38;100477.06;5074274;28;20028;-77
2021/08/09 04:48:57;;;;;;;7.05;1.77;;;;;;;22.19;45.39;100472.69;5073770;28;20497;-75
2021/08/09 04:51:23;;;;;;;4.43;2.05;;;;;;;22.17;45.48;100458.38;5072491;28;20024;-76
2021/08/09 04:53:48;;;;;;;6.80;2.38;;;;;;;22.18;45.66;100476.66;5073721;28;20474;-76
2021/08/09 04:56:14;;;;;;;7.30;2.50;;;;;;;22.18;45.69;100471.91;5072368;28;20162;-76
2021/08/09 04:58:39;;;;;;;10.30;3.08;;;;;;;22.22;45.34;100477.44;5073413;28;20360;-76
2021/08/09 05:01:05;;;;;;;6.20;2.28;;;;;;;22.25;45.52;100474.69;5073529;28;20082;-76
2021/08/09 05:03:40;;;;;;;8.25;3.10;;;;;;;22.25;45.61;100468.31;5072425;28;20115;-75
2021/08/09 05:06:10;;;;;;;9.23;2.00;;;;;;;22.19;46.11;100465.13;5073460;28;20036;-76
2021/08/09 05:08:36;;;;;;;5.00;1.80;;;;;;;22.23;45.69;100473.50;5073462;28;20025;-76
2021/08/09 05:11:02;;;;;;;12.10;2.85;;;;;;;22.29;45.58;100471.88;5073602;28;20032;-85
2021/08/09 05:13:27;;;;;;;4.90;1.70;;;;;;;22.47;45.40;100472.66;5073333;28;20025;-84
2021/08/09 05:15:53;;;;;;;7.28;2.45;;;;;;;22.34;45.50;100475.06;5073144;28;20082;-76
2021/08/09 05:18:19;;;;;;;12.48;3.13;;;;;;;22.41;45.23;100475.06;5071887;28;20474;-76
2021/08/09 05:20:46;;;;;;;3.63;1.90;;;;;;;22.51;45.18;100484.56;5073158;28;20024;-76
2021/08/09 05:23:14;;;;;;;10.10;2.60;;;;;;;22.45;45.09;100463.94;5073048;28;20020;-76
2021/08/09 05:25:40;;;;;;;7.80;2.10;;;;;;;22.55;45.13;100477.03;5073200;28;20032;-76
2021/08/09 05:28:06;;;;;;;12.40;2.35;;;;;;;22.63;44.69;100463.88;5073065;28;20032;-76
2021/08/09 05:30:32;;;;;;;5.25;2.25;;;;;;;22.51;45.14;100484.56;5073061;28;20031;-76
2021/08/09 05:33:00;;;;;;;5.25;2.13;;;;;;;22.50;45.10;100483.00;5071727;28;20020;-76
2021/08/09 05:35:26;;;;;;;6.40;3.35;;;;;;;22.62;44.87;100485.38;5072847;28;20036;-76
2021/08/09 05:37:52;;;;;;;6.07;1.98;;;;;;;22.74;44.81;100481.34;5072970;28;20032;-75
2021/08/09 05:40:17;;;;;;;5.32;2.25;;;;;;;22.67;45.42;100482.19;5072770;28;20040;-77
2021/08/09 05:42:47;;;;;;;5.20;2.25;;;;;;;22.82;44.92;100488.50;5073030;28;20031;-76
2021/08/09 05:45:13;;;;;;;5.60;2.42;;;;;;;22.88;45.01;100486.09;5072897;28;20475;-87
2021/08/09 05:47:38;;;;;;;6.60;1.98;;;;;;;22.83;44.96;100489.31;5073354;28;20040;-76
2021/08/09 05:50:04;;;;;;;5.13;2.20;;;;;;;22.79;45.16;100489.28;5073338;28;20043;-76
2021/08/09 05:52:30;;;;;;;6.85;2.15;;;;;;;22.92;44.64;100481.34;5073056;28;20056;-75
2021/08/09 05:55:02;;;;;;;8.95;2.50;;;;;;;22.91;44.83;100485.31;5073054;28;20174;-76
2021/08/09 05:57:27;;;;;;;3.30;2.03;;;;;;;22.94;44.80;100484.50;5073058;28;20060;-77
2021/08/09 05:59:53;;;;;;;4.07;1.88;;;;;;;22.92;44.84;100484.13;5073081;28;20447;-76
2021/08/09 06:02:19;;;;;;;8.52;2.45;;;;;;;22.97;44.63;100486.47;5073103;28;20031;-85
2021/08/09 06:04:44;;;;;;;3.00;1.90;;;;;;;22.92;45.03;100486.91;5072964;28;20107;-78
2021/08/09 06:07:15;;;;;;;5.70;2.08;;;;;;;22.95;45.04;100488.88;5072973;28;20032;-76
2021/08/09 06:09:41;;;;;;;8.15;2.97;;;;;;;22.83;45.28;100497.66;5071710;28;20024;-76
2021/08/09 06:12:08;;;;;;;4.57;2.30;;;;;;;22.93;45.53;100496.84;5073034;28;20025;-76
2021/08/09 06:14:34;;;;;;;3.22;1.83;;;;;;;23.00;45.38;100499.63;5071449;28;20103;-86
2021/08/09 06:16:59;;;;;;;6.53;2.47;;;;;;;22.95;45.38;100498.03;5072964;28;20514;-86
2021/08/09 06:19:25;;;;;;;8.40;2.70;;;;;;;22.97;45.45;100494.84;5072872;28;20035;-76
2021/08/09 06:21:51;;;;;;;9.68;2.63;;;;;;;23.00;45.79;100499.63;5072730;28;20063;-76
2021/08/09 06:24:16;;;;;;;4.32;2.13;;;;;;;23.00;45.88;100505.19;5072966;28;20033;-76
2021/08/09 06:26:42;;;;;;;6.13;2.38;;;;;;;23.02;45.78;100500.00;5072783;28;20475;-85
2021/08/09 06:29:07;;;;;;;5.50;2.10;;;;;;;23.04;45.62;100503.16;5072547;28;20017;-75
2021/08/09 06:31:33;;;;;;;5.80;2.15;;;;;;;22.95;46.13;100502.81;5072614;28;20031;-75
2021/08/09 06:33:59;;;;;;;4.82;2.00;;;;;;;23.02;46.00;100508.34;5071358;28;20029;-76
2021/08/09 06:36:24;;;;;;;6.88;2.30;;;;;;;22.99;46.23;100506.38;5074077;28;20482;-83
2021/08/09 06:38:50;;;;;;;9.75;3.15;;;;;;;22.93;46.75;100503.22;5076405;28;20454;-84
2021/08/09 06:41:20;;;;;;;6.05;2.30;;;;;;;22.99;46.34;100509.19;5076541;28;20025;-75
2021/08/09 06:43:48;;;;;;;;;;;;;;;22.98;46.61;100504.81;5077008;28;20046;-75
2021/08/09 06:46:15;;;;;;;7.50;2.95;;;;;;;23.03;46.08;100509.94;5076286;28;20316;-76
2021/08/09 06:48:41;;;;;;;7.47;2.70;;;;;;;23.13;45.97;100514.69;5076405;28;20025;-75
2021/08/09 06:51:07;;;;;;;7.00;2.90;;;;;;;23.06;46.21;100513.94;5076463;28;20024;-75
2021/08/09 06:53:33;;;;;;;8.18;3.10;;;;;;;23.14;46.20;100507.94;5076499;28;20033;-88
2021/08/09 06:55:58;;;;;;;5.53;2.13;;;;;;;23.06;46.59;100506.38;5076129;28;20116;-76
2021/08/09 06:58:24;;;;;;;8.50;2.83;;;;;;;23.16;46.32;100502.72;5076294;28;20079;-75
2021/08/09 07:00:50;;;;;;;8.00;2.67;;;;;;;23.18;46.18;100505.91;5075061;28;20082;-76
2021/08/09 07:03:17;;;;;;;5.57;3.28;;;;;;;23.02;46.77;100513.94;5076233;28;20028;-76
2021/08/09 07:05:44;;;;;;;9.48;2.63;;;;;;;23.03;46.65;100507.16;5076120;28;20114;-89
2021/08/09 07:08:10;;;;;;;11.52;3.88;;;;;;;23.08;46.63;100503.97;5076153;28;20378;-76
2021/08/09 07:10:36;;;;;;;6.93;3.03;;;;;;;23.07;46.89;100507.94;5075868;28;20126;-76
2021/08/09 07:13:03;;;;;;;5.78;2.78;;;;;;;23.04;47.16;100511.53;5075976;28;20020;-75
2021/08/09 07:15:28;;;;;;;8.63;2.85;;;;;;;23.02;47.11;100511.16;5075641;28;20036;-75
2021/08/09 07:17:54;;;;;;;7.40;3.10;;;;;;;23.04;47.22;100505.16;5075845;28;20034;-76
2021/08/09 07:20:19;;;;;;;4.97;2.55;;;;;;;23.08;46.92;100512.31;5075724;28;20032;-75
2021/08/09 07:22:46;;;;;;;6.25;2.65;;;;;;;23.06;47.23;100503.56;5075572;28;20036;-84
2021/08/09 07:25:14;;;;;;;6.90;2.95;;;;;;;23.11;47.43;100511.50;5075979;28;20056;-76
2021/08/09 07:27:41;;;;;;;6.78;2.78;;;;;;;23.30;46.71;100503.88;5075675;28;20063;-74
2021/08/09 07:30:09;;;;;;;8.52;3.05;;;;;;;23.26;47.12;100504.66;5075665;28;20055;-76
2021/08/09 07:32:36;;;;;;;8.68;3.55;;;;;;;23.08;47.77;100506.75;5074351;28;20486;-76
2021/08/09 07:35:02;;;;;;;8.65;2.97;;;;;;;23.29;46.96;100521.81;5075438;28;20398;-85
2021/08/09 07:37:27;;;;;;;4.65;2.63;;;;;;;23.32;47.09;100509.84;5075419;28;20028;-76
2021/08/09 07:39:53;;;;;;;5.13;2.72;;;;;;;23.26;47.34;100518.59;5075235;28;20070;-86
2021/08/09 07:42:19;;;;;;;8.52;2.60;;;;;;;23.45;47.02;100516.56;5075465;28;20021;-76
2021/08/09 07:44:45;;;;;;;5.97;2.70;;;;;;;23.46;47.01;100516.13;5075762;28;20028;-81
2021/08/09 07:47:10;;;;;;;4.80;2.97;;;;;;;23.39;47.18;100509.81;5074233;28;20021;-76
2021/08/09 07:49:36;;;;;;;6.15;3.00;;;;;;;23.60;46.78;100508.91;5074428;28;20024;-76
2021/08/09 07:52:02;;;;;;;4.38;2.53;;;;;;;23.63;46.70;100519.25;5075355;28;20029;-76
2021/08/09 07:54:27;;;;;;;7.82;3.33;;;;;;;23.53;47.33;100523.66;5073624;28;20029;-75
2021/08/09 07:56:53;;;;;;;7.15;2.60;;;;;;;23.60;46.99;100517.25;5075538;28;20025;-75
2021/08/09 07:59:21;;;;;;;7.82;3.17;;;;;;;23.65;47.00;100523.22;5075428;28;20481;-75
2021/08/09 08:01:47;;;;;;;7.38;3.80;;;;;;;23.67;47.02;100518.06;5074209;28;20024;-75
2021/08/09 08:04:13;;;;;;;5.22;2.70;;;;;;;23.79;46.92;100528.72;5075137;28;20028;-88
2021/08/09 08:06:39;;;;;;;5.05;2.70;;;;;;;23.67;47.37;100515.25;5073899;28;20393;-75
2021/08/09 08:09:06;;;;;;;6.40;2.67;;;;;;;23.71;46.89;100518.81;5073913;28;20024;-76
2021/08/09 08:11:31;;;;;;;5.97;2.85;;;;;;;23.89;46.81;100524.28;5073864;28;20047;-75
2021/08/09 08:13:57;;;;;;;5.55;2.85;;;;;;;23.90;46.70;100519.50;5073510;28;20474;-75
2021/08/09 08:16:22;;;;;;;13.48;4.30;;;;;;;23.89;46.80;100521.50;5074454;28;20029;-75
2021/08/09 08:18:48;;;;;;;7.95;3.00;;;;;;;23.95;46.98;100530.22;5073655;28;20475;-75
2021/08/09 08:21:14;;;;;;;8.20;3.50;;;;;;;23.96;46.88;100531.81;5074660;28;20440;-84
2021/08/09 08:23:39;;;;;;;5.47;2.90;;;;;;;23.96;47.18;100531.81;5073395;28;20029;-76
2021/08/09 08:26:05;;;;;;;7.68;3.03;;;;;;;24.09;46.84;100527.31;5074728;28;20434;-75
2021/08/09 08:28:31;;;;;;;11.25;3.20;;;;;;;24.15;47.15;100531.25;5074492;28;20028;-76
2021/08/09 08:30:57;;;;;;;7.20;3.17;;;;;;;24.29;47.15;100525.56;5075462;28;20099;-82
2021/08/09 08:33:22;;;;;;;11.25;3.38;;;;;;;24.32;46.90;100529.53;5074410;28;20029;-76
2021/08/09 08:35:48;;;;;;;5.50;3.20;;;;;;;24.36;47.07;100530.34;5074249;28;20093;-88
2021/08/09 08:38:14;;;;;;;7.50;3.28;;;;;;;24.48;46.68;100534.59;5074243;28;20385;-76
2021/08/09 08:40:48;;;;;;;11.35;3.42;;;;;;;24.33;47.14;100531.97;5073862;28;20107;-76
2021/08/09 08:43:25;;;;;;;6.85;3.25;;;;;;;24.43;47.01;100535.84;5073139;28;20060;-76
2021/08/09 08:45:59;;;;;;;5.07;3.25;;;;;;;24.26;47.24;100537.56;5074058;28;20029;-75
2021/08/09 08:48:25;;;;;;;6.68;3.10;;;;;;;24.31;47.38;100544.69;5074374;28;20090;-76
2021/08/09 08:50:52;;;;;;;8.48;4.30;;;;;;;24.15;47.79;100542.44;5074252;28;20431;-75
2021/08/09 08:53:19;;;;;;;6.38;3.15;;;;;;;24.30;47.58;100543.91;5074064;28;20100;-76
2021/08/09 08:55:45;;;;;;;4.97;3.20;;;;;;;24.16;47.95;100544.00;5074073;28;20058;-76
2021/08/09 08:58:11;;;;;;;10.07;3.83;;;;;;;24.01;48.25;100542.53;5073679;28;20032;-75
2021/08/09 09:00:37;;;;;;;9.55;3.42;;;;;;;24.08;48.22;100548.06;5074005;28;20595;-85
2021/08/09 09:03:22;;;;;;;7.25;4.10;;;;;;;23.84;48.86;100547.03;5074200;28;20024;-76
2021/08/09 09:05:57;;;;;;;6.00;4.00;;;;;;;24.12;48.52;100546.06;5074054;28;20050;-80
2021/08/09 09:08:48;;;;;;;9.77;4.53;;;;;;;24.21;47.92;100543.59;5073708;28;20028;-76
2021/08/09 09:11:32;;;;;;;7.90;3.70;;;;;;;24.07;48.74;100543.69;5073864;28;20082;-75
2021/08/09 09:44:38;;;;;;;9.82;3.10;;;;;;;24.97;51.64;100560.47;5131291;27;20388;-79
2021/08/09 09:47:26;;;;;;;5.22;2.88;;;;;;;24.99;51.08;100558.84;5129864;28;20378;-79
2021/08/09 09:49:57;;;;;;;8.25;3.38;;;;;;;25.19;50.78;100561.84;5129891;28;20027;-84
2021/08/09 09:52:29;;;;;;;4.55;3.30;;;;;;;25.28;50.57;100570.53;5130950;27;20385;-83
2021/08/09 09:54:59;;;;;;;9.55;4.63;;;;;;;25.28;50.39;100564.16;5129791;28;20027;-85
2021/08/09 09:57:27;;;;;;;8.93;3.65;;;;;;;25.46;49.83;100554.31;5130887;27;20026;-81
2021/08/09 09:59:56;;;;;;;6.15;3.70;;;;;;;25.57;49.55;100570.19;5129462;28;20023;-77
2021/08/09 10:02:22;;;;;;;9.90;4.03;;;;;;;25.65;49.63;100571.66;5129442;28;20031;-78
2021/08/09 10:04:49;;;;;;;5.20;3.40;;;;;;;25.91;48.79;100568.13;5129512;28;20020;-79
2021/08/09 10:07:16;;;;;;;6.43;3.35;;;;;;;26.03;48.59;100571.56;5163703;27;20128;-78
2021/08/09 10:09:44;;;;;;;7.13;3.50;;;;;;;26.10;48.26;100565.88;5130594;27;20098;-82
2021/08/09 10:12:10;;;;;;;10.85;3.95;;;;;;;26.08;48.40;100565.50;5131491;27;20026;-81
2021/08/09 10:14:37;;;;;;;6.25;3.63;;;;;;;25.95;48.47;100580.06;5130861;27;20024;-84
2021/08/09 10:17:04;;;;;;;4.68;3.60;;;;;;;25.96;48.03;100578.84;5130551;27;20092;-81
2021/08/09 10:19:30;;;;;;;5.85;3.78;;;;;;;25.93;47.93;100576.91;5130639;27;20023;-86
2021/08/09 10:21:56;;;;;;;7.35;3.95;;;;;;;25.78;48.39;100572.72;5130619;27;20020;-79
2021/08/09 10:24:40;;;;;;;5.70;3.70;;;;;;;26.11;47.91;100573.03;5128959;28;20031;-84
2021/08/09 10:27:06;;;;;;;9.60;3.75;;;;;;;26.12;47.63;100577.44;5129141;28;20020;-80
2021/08/09 10:29:31;;;;;;;3.78;3.20;;;;;;;26.28;47.37;100577.56;5130483;27;20011;-84
2021/08/09 10:32:42;;;;;;;9.02;3.90;;;;;;;26.21;47.80;100583.28;5130340;27;20038;-86
2021/08/09 10:35:33;;;;;;;5.95;3.53;;;;;;;26.27;47.38;100587.97;5101312;27;20431;-80
2021/08/09 10:38:19;;;;;;;6.97;2.72;;;;;;;25.58;48.51;100586.53;5130112;27;20023;-86
2021/08/09 10:40:47;;;;;;;3.95;2.70;;;;;;;25.91;47.69;100584.13;5130106;27;20020;-80
2021/08/09 10:43:14;;;;;;;4.28;3.00;;;;;;;26.13;47.17;100584.59;5130017;27;20058;-80
2021/08/09 10:45:44;;;;;;;6.57;3.30;;;;;;;26.27;47.18;100584.38;5114409;28;20038;-80
2021/08/09 10:48:11;;;;;;;5.32;3.63;;;;;;;26.30;47.37;100586.34;5116454;28;20084;-81
2021/08/09 10:50:40;;;;;;;4.88;2.92;;;;;;;26.48;47.13;100589.69;5116306;28;20023;-81
2021/08/09 10:53:28;;;;;;;5.88;3.42;;;;;;;26.80;46.74;100577.13;5115948;28;20036;-80
2021/08/09 10:56:00;;;;;;;4.78;2.78;;;;;;;26.66;46.56;100588.59;5116139;28;20028;-81
2021/08/09 10:58:41;;;;;;;4.20;2.60;;;;;;;26.41;46.62;100587.00;5116058;28;20026;-84
2021/08/09 11:01:10;;;;;;;4.03;2.88;;;;;;;26.54;46.37;100587.19;5116166;27;20095;-81
2021/08/09 11:04:01;;;;;;;6.25;3.10;;;;;;;26.35;47.26;100585.84;5116331;28;20035;-81
2021/08/09 11:06:55;;;;;;;3.63;2.88;;;;;;;26.71;46.78;100588.88;5116164;28;20111;-81
2021/08/09 11:09:33;;;;;;;5.55;2.50;;;;;;;27.00;46.29;100588.38;5116035;28;20088;-85
2021/08/09 11:12:20;;;;;;;7.63;3.22;;;;;;;27.00;45.92;100586.38;5116381;28;20011;-80
2021/08/09 11:17:28;;;;;;;4.00;2.70;;;;;;;27.14;45.92;100588.13;5116042;28;20028;-81
2021/08/09 11:20:10;;;;;;;3.13;1.80;;;;;;;27.08;45.79;100582.22;5115805;28;20053;-88
2021/08/09 11:22:37;;;;;;;8.00;3.00;;;;;;;27.14;45.56;100576.94;5115868;28;20477;-81
2021/08/09 11:25:03;;;;;;;8.13;2.83;;;;;;;27.32;45.06;100574.53;5116032;28;20354;-86
2021/08/09 11:27:29;;;;;;;8.25;2.67;;;;;;;27.52;44.73;100582.97;5114956;28;20023;-86
2021/08/09 11:29:56;;;;;;;3.60;2.10;;;;;;;27.61;44.73;100593.59;5115909;28;20503;-81
2021/08/09 11:32:44;;;;;;;5.22;2.30;;;;;;;27.45;44.77;100587.94;5114526;28;20035;-84
2021/08/09 11:35:10;;;;;;;8.10;2.53;;;;;;;27.63;44.57;100588.34;5115784;28;20020;-86
2021/08/09 11:37:59;;;;;;;6.38;2.60;;;;;;;27.75;44.33;100592.53;5115491;27;20043;-81
2021/08/09 11:40:47;;;;;;;8.50;2.28;;;;;;;27.48;44.09;100587.06;5115602;28;20020;-86
2021/08/09 11:43:35;;;;;;;4.45;2.35;;;;;;;27.26;44.34;100592.31;5115255;28;20048;-87
2021/08/09 11:46:04;;;;;;;4.57;1.70;;;;;;;27.84;42.63;100582.28;5113625;28;20035;-85
2021/08/09 11:48:35;;;;;;;3.65;2.30;;;;;;;27.78;41.87;100589.63;5115060;28;20050;-79
2021/08/09 11:51:12;;;;;;;5.65;2.53;;;;;;;27.77;42.30;100593.66;5113634;28;20038;-86
2021/08/09 11:53:40;;;;;;;5.38;2.60;;;;;;;27.92;42.13;100600.56;5113656;28;20051;-83
2021/08/09 11:56:11;;;;;;;9.07;2.30;;;;;;;27.91;42.14;100593.38;5114119;28;20032;-86
2021/08/09 11:58:37;;;;;;;4.85;2.42;;;;;;;27.99;42.22;100591.19;5113779;28;20019;-79
2021/08/09 12:01:04;;;;;;;5.95;2.10;;;;;;;28.12;41.88;100585.69;5114730;28;20027;-86
2021/08/09 12:03:30;;;;;;;8.32;2.78;;;;;;;28.17;42.14;100588.75;5114573;28;20084;-78